sensor_id;sensor_type;location;lat;lon;timestamp;temperature;humidity
13585;DHT22;6863;48.402;9.994;2022-12-07T00:01:20;2.80;99.90
13585;DHT22;6863;48.402;9.994;2022-12-07T00:03:47;2.80;99.90
13585;DHT22;6863;48.402;9.994;2022-12-07T00:06:15;2.80;99.90
13585;DHT22;6863;48.402;9.994;2022-12-07T00:08:41;2.80;99.90
13585;DHT22;6863;48.402;9.994;2022-12-07T00:11:12;2.80;99.90
13585;DHT22;6863;48.402;9.994;2022-12-07T00:13:39;2.80;99.90
13585;DHT22;6863;48.402;9.994;2022-12-07T00:16:10;2.80;99.90
13585;DHT22;6863;48.402;9.994;2022-12-07T00:18:37;2.80;99.90
13585;DHT22;6863;48.402;9.994;2022-12-07T00:21:06;2.80;99.90
13585;DHT22;6863;48.402;9.994;2022-12-07T00:23:33;2.80;99.90
13585;DHT22;6863;48.402;9.994;2022-12-07T00:26:08;2.80;99.90
13585;DHT22;6863;48.402;9.994;2022-12-07T00:28:33;2.80;99.90
13585;DHT22;6863;48.402;9.994;2022-12-07T00:31:01;2.80;99.90
13585;DHT22;6863;48.402;9.994;2022-12-07T00:33:27;2.80;99.90
13585;DHT22;6863;48.402;9.994;2022-12-07T00:35:58;2.80;99.90
13585;DHT22;6863;48.402;9.994;2022-12-07T00:38:23;2.80;99.90
13585;DHT22;6863;48.402;9.994;2022-12-07T00:41:00;2.80;99.90
13585;DHT22;6863;48.402;9.994;2022-12-07T00:43:26;2.80;99.90
13585;DHT22;6863;48.402;9.994;2022-12-07T00:45:53;2.80;99.90
13585;DHT22;6863;48.402;9.994;2022-12-07T00:48:19;2.80;99.90
13585;DHT22;6863;48.402;9.994;2022-12-07T00:50:44;2.80;99.90
13585;DHT22;6863;48.402;9.994;2022-12-07T00:53:10;2.80;99.90
13585;DHT22;6863;48.402;9.994;2022-12-07T00:55:36;2.90;99.90
13585;DHT22;6863;48.402;9.994;2022-12-07T00:58:02;2.90;99.90
13585;DHT22;6863;48.402;9.994;2022-12-07T01:00:28;3.00;99.90
13585;DHT22;6863;48.402;9.994;2022-12-07T01:02:54;2.90;99.90
13585;DHT22;6863;48.402;9.994;2022-12-07T01:05:19;3.00;99.90
13585;DHT22;6863;48.402;9.994;2022-12-07T01:07:45;3.00;99.90
13585;DHT22;6863;48.402;9.994;2022-12-07T01:10:12;3.00;99.90
13585;DHT22;6863;48.402;9.994;2022-12-07T01:12:38;3.10;99.90
13585;DHT22;6863;48.402;9.994;2022-12-07T01:15:04;3.10;99.90
13585;DHT22;6863;48.402;9.994;2022-12-07T01:17:30;3.10;99.90
13585;DHT22;6863;48.402;9.994;2022-12-07T01:19:56;3.10;99.90
13585;DHT22;6863;48.402;9.994;2022-12-07T01:22:21;3.10;99.90
13585;DHT22;6863;48.402;9.994;2022-12-07T01:24:47;3.10;99.90
13585;DHT22;6863;48.402;9.994;2022-12-07T01:27:13;3.10;99.90
13585;DHT22;6863;48.402;9.994;2022-12-07T01:29:39;3.10;99.90
13585;DHT22;6863;48.402;9.994;2022-12-07T01:32:05;3.10;99.90
13585;DHT22;6863;48.402;9.994;2022-12-07T01:34:31;3.10;99.90
13585;DHT22;6863;48.402;9.994;2022-12-07T01:36:56;3.20;99.90
13585;DHT22;6863;48.402;9.994;2022-12-07T01:39:22;3.10;99.90
13585;DHT22;6863;48.402;9.994;2022-12-07T01:41:48;3.10;99.90
13585;DHT22;6863;48.402;9.994;2022-12-07T01:44:28;3.10;99.90
13585;DHT22;6863;48.402;9.994;2022-12-07T01:46:57;3.10;99.90
13585;DHT22;6863;48.402;9.994;2022-12-07T01:51:49;3.10;99.90
13585;DHT22;6863;48.402;9.994;2022-12-07T01:54:17;3.20;99.90
13585;DHT22;6863;48.402;9.994;2022-12-07T01:56:49;3.20;99.90
13585;DHT22;6863;48.402;9.994;2022-12-07T01:59:17;3.20;99.90
13585;DHT22;6863;48.402;9.994;2022-12-07T02:01:43;3.20;99.90
13585;DHT22;6863;48.402;9.994;2022-12-07T02:04:09;3.20;99.90
13585;DHT22;6863;48.402;9.994;2022-12-07T02:06:35;3.20;99.90
13585;DHT22;6863;48.402;9.994;2022-12-07T02:09:02;3.20;99.90
13585;DHT22;6863;48.402;9.994;2022-12-07T02:11:27;3.20;99.90
13585;DHT22;6863;48.402;9.994;2022-12-07T02:13:53;3.20;99.90
13585;DHT22;6863;48.402;9.994;2022-12-07T02:19:31;3.20;99.90
13585;DHT22;6863;48.402;9.994;2022-12-07T02:25:30;3.10;99.90
13585;DHT22;6863;48.402;9.994;2022-12-07T02:28:28;3.10;99.90
13585;DHT22;6863;48.402;9.994;2022-12-07T02:30:54;3.10;99.90
13585;DHT22;6863;48.402;9.994;2022-12-07T02:33:41;3.00;99.90
13585;DHT22;6863;48.402;9.994;2022-12-07T02:36:12;3.00;99.90
13585;DHT22;6863;48.402;9.994;2022-12-07T02:38:52;2.90;99.90
13585;DHT22;6863;48.402;9.994;2022-12-07T02:41:25;2.90;99.90
13585;DHT22;6863;48.402;9.994;2022-12-07T02:43:54;2.80;99.90
13585;DHT22;6863;48.402;9.994;2022-12-07T02:46:24;2.80;99.90
13585;DHT22;6863;48.402;9.994;2022-12-07T02:48:51;2.80;99.90
13585;DHT22;6863;48.402;9.994;2022-12-07T02:51:18;2.90;99.90
13585;DHT22;6863;48.402;9.994;2022-12-07T02:53:44;2.90;99.90
13585;DHT22;6863;48.402;9.994;2022-12-07T02:56:35;2.90;99.90
13585;DHT22;6863;48.402;9.994;2022-12-07T03:10:28;3.00;99.90
13585;DHT22;6863;48.402;9.994;2022-12-07T03:13:04;3.00;99.90
13585;DHT22;6863;48.402;9.994;2022-12-07T03:18:03;3.00;99.90
13585;DHT22;6863;48.402;9.994;2022-12-07T03:20:31;3.00;99.90
13585;DHT22;6863;48.402;9.994;2022-12-07T03:22:59;3.00;99.90
13585;DHT22;6863;48.402;9.994;2022-12-07T03:25:25;3.00;99.90
13585;DHT22;6863;48.402;9.994;2022-12-07T03:27:58;3.00;99.90
13585;DHT22;6863;48.402;9.994;2022-12-07T03:30:57;3.10;99.90
13585;DHT22;6863;48.402;9.994;2022-12-07T03:33:30;3.00;99.90
13585;DHT22;6863;48.402;9.994;2022-12-07T03:36:04;3.00;99.90
13585;DHT22;6863;48.402;9.994;2022-12-07T03:38:40;3.00;99.90
13585;DHT22;6863;48.402;9.994;2022-12-07T03:41:12;3.00;99.90
13585;DHT22;6863;48.402;9.994;2022-12-07T03:43:40;3.00;99.90
13585;DHT22;6863;48.402;9.994;2022-12-07T03:51:28;3.10;99.90
13585;DHT22;6863;48.402;9.994;2022-12-07T03:54:10;3.10;99.90
13585;DHT22;6863;48.402;9.994;2022-12-07T03:56:36;3.10;99.90
13585;DHT22;6863;48.402;9.994;2022-12-07T03:59:03;3.10;99.90
13585;DHT22;6863;48.402;9.994;2022-12-07T04:01:28;3.10;99.90
13585;DHT22;6863;48.402;9.994;2022-12-07T04:03:54;3.10;99.90
13585;DHT22;6863;48.402;9.994;2022-12-07T04:06:19;3.10;99.90
13585;DHT22;6863;48.402;9.994;2022-12-07T04:08:45;3.10;99.90
13585;DHT22;6863;48.402;9.994;2022-12-07T04:11:11;3.10;99.90
13585;DHT22;6863;48.402;9.994;2022-12-07T04:13:36;3.00;99.90
13585;DHT22;6863;48.402;9.994;2022-12-07T04:16:22;3.00;99.90
13585;DHT22;6863;48.402;9.994;2022-12-07T04:18:50;3.00;99.90
13585;DHT22;6863;48.402;9.994;2022-12-07T04:21:15;3.00;99.90
13585;DHT22;6863;48.402;9.994;2022-12-07T04:23:41;3.00;99.90
13585;DHT22;6863;48.402;9.994;2022-12-07T04:26:07;2.90;99.90
13585;DHT22;6863;48.402;9.994;2022-12-07T04:28:32;2.90;99.90
13585;DHT22;6863;48.402;9.994;2022-12-07T04:30:58;2.80;99.90
13585;DHT22;6863;48.402;9.994;2022-12-07T04:33:23;2.80;99.90
13585;DHT22;6863;48.402;9.994;2022-12-07T04:35:49;2.80;99.90
13585;DHT22;6863;48.402;9.994;2022-12-07T04:38:14;2.80;99.90
13585;DHT22;6863;48.402;9.994;2022-12-07T04:40:40;2.70;99.90
13585;DHT22;6863;48.402;9.994;2022-12-07T04:43:06;2.70;99.90
13585;DHT22;6863;48.402;9.994;2022-12-07T04:45:31;2.70;99.90
13585;DHT22;6863;48.402;9.994;2022-12-07T04:47:57;2.70;99.90
13585;DHT22;6863;48.402;9.994;2022-12-07T04:50:22;2.60;99.90
13585;DHT22;6863;48.402;9.994;2022-12-07T04:52:48;2.60;99.90
13585;DHT22;6863;48.402;9.994;2022-12-07T04:55:14;2.60;99.90
13585;DHT22;6863;48.402;9.994;2022-12-07T04:57:39;2.60;99.90
13585;DHT22;6863;48.402;9.994;2022-12-07T05:00:05;2.60;99.90
13585;DHT22;6863;48.402;9.994;2022-12-07T05:02:31;2.60;99.90
13585;DHT22;6863;48.402;9.994;2022-12-07T05:04:56;2.60;99.90
13585;DHT22;6863;48.402;9.994;2022-12-07T05:07:22;2.60;99.90
13585;DHT22;6863;48.402;9.994;2022-12-07T05:09:48;2.60;99.90
13585;DHT22;6863;48.402;9.994;2022-12-07T05:12:13;2.60;99.90
13585;DHT22;6863;48.402;9.994;2022-12-07T05:14:39;2.60;99.90
13585;DHT22;6863;48.402;9.994;2022-12-07T05:17:04;2.60;99.90
13585;DHT22;6863;48.402;9.994;2022-12-07T05:19:30;2.50;99.90
13585;DHT22;6863;48.402;9.994;2022-12-07T05:21:55;2.60;99.90
13585;DHT22;6863;48.402;9.994;2022-12-07T05:24:21;2.50;99.90
13585;DHT22;6863;48.402;9.994;2022-12-07T05:26:47;2.50;99.90
13585;DHT22;6863;48.402;9.994;2022-12-07T05:29:14;2.50;99.90
13585;DHT22;6863;48.402;9.994;2022-12-07T05:31:40;2.40;99.90
13585;DHT22;6863;48.402;9.994;2022-12-07T05:34:06;2.40;99.90
13585;DHT22;6863;48.402;9.994;2022-12-07T05:36:31;2.30;99.90
13585;DHT22;6863;48.402;9.994;2022-12-07T05:38:58;2.30;99.90
13585;DHT22;6863;48.402;9.994;2022-12-07T05:41:23;2.30;99.90
13585;DHT22;6863;48.402;9.994;2022-12-07T05:44:08;2.20;99.90
13585;DHT22;6863;48.402;9.994;2022-12-07T05:46:34;2.20;99.90
13585;DHT22;6863;48.402;9.994;2022-12-07T05:49:00;2.10;99.90
13585;DHT22;6863;48.402;9.994;2022-12-07T05:51:38;2.00;99.90
13585;DHT22;6863;48.402;9.994;2022-12-07T05:54:04;2.00;99.90
13585;DHT22;6863;48.402;9.994;2022-12-07T05:56:29;1.90;99.90
13585;DHT22;6863;48.402;9.994;2022-12-07T05:58:55;2.00;99.90
13585;DHT22;6863;48.402;9.994;2022-12-07T06:01:42;2.10;99.90
13585;DHT22;6863;48.402;9.994;2022-12-07T06:04:08;2.10;99.90
13585;DHT22;6863;48.402;9.994;2022-12-07T06:06:33;2.10;99.90
13585;DHT22;6863;48.402;9.994;2022-12-07T06:08:59;2.10;99.90
13585;DHT22;6863;48.402;9.994;2022-12-07T06:11:25;2.10;99.90
13585;DHT22;6863;48.402;9.994;2022-12-07T06:14:09;2.10;99.90
13585;DHT22;6863;48.402;9.994;2022-12-07T06:16:34;2.00;99.90
13585;DHT22;6863;48.402;9.994;2022-12-07T06:19:00;2.00;99.90
13585;DHT22;6863;48.402;9.994;2022-12-07T06:21:26;2.00;99.90
13585;DHT22;6863;48.402;9.994;2022-12-07T06:23:52;2.00;99.90
13585;DHT22;6863;48.402;9.994;2022-12-07T06:26:17;2.00;99.90
13585;DHT22;6863;48.402;9.994;2022-12-07T06:28:43;2.10;99.90
13585;DHT22;6863;48.402;9.994;2022-12-07T06:31:09;2.00;99.90
13585;DHT22;6863;48.402;9.994;2022-12-07T06:33:35;2.10;99.90
13585;DHT22;6863;48.402;9.994;2022-12-07T06:36:00;2.10;99.90
13585;DHT22;6863;48.402;9.994;2022-12-07T06:38:26;2.10;99.90
13585;DHT22;6863;48.402;9.994;2022-12-07T06:40:52;2.10;99.90
13585;DHT22;6863;48.402;9.994;2022-12-07T06:43:17;2.10;99.90
13585;DHT22;6863;48.402;9.994;2022-12-07T06:45:43;2.00;99.90
13585;DHT22;6863;48.402;9.994;2022-12-07T06:48:08;2.00;99.90
13585;DHT22;6863;48.402;9.994;2022-12-07T06:50:34;1.90;99.90
13585;DHT22;6863;48.402;9.994;2022-12-07T06:53:00;1.90;99.90
13585;DHT22;6863;48.402;9.994;2022-12-07T06:55:25;1.90;99.90
13585;DHT22;6863;48.402;9.994;2022-12-07T06:57:52;2.00;99.90
13585;DHT22;6863;48.402;9.994;2022-12-07T07:00:18;2.00;99.90
13585;DHT22;6863;48.402;9.994;2022-12-07T07:02:43;2.10;99.90
13585;DHT22;6863;48.402;9.994;2022-12-07T07:05:09;2.00;99.90
13585;DHT22;6863;48.402;9.994;2022-12-07T07:07:34;2.10;99.90
13585;DHT22;6863;48.402;9.994;2022-12-07T07:10:00;2.10;99.90
13585;DHT22;6863;48.402;9.994;2022-12-07T07:12:26;2.00;99.90
13585;DHT22;6863;48.402;9.994;2022-12-07T07:14:51;2.00;99.90
13585;DHT22;6863;48.402;9.994;2022-12-07T07:17:17;2.10;99.90
13585;DHT22;6863;48.402;9.994;2022-12-07T07:19:42;2.10;99.90
13585;DHT22;6863;48.402;9.994;2022-12-07T07:22:08;2.10;99.90
13585;DHT22;6863;48.402;9.994;2022-12-07T07:24:34;2.10;99.90
13585;DHT22;6863;48.402;9.994;2022-12-07T07:26:59;2.10;99.90
13585;DHT22;6863;48.402;9.994;2022-12-07T07:29:25;2.10;99.90
13585;DHT22;6863;48.402;9.994;2022-12-07T07:31:50;2.10;99.90
13585;DHT22;6863;48.402;9.994;2022-12-07T07:34:16;2.10;99.90
13585;DHT22;6863;48.402;9.994;2022-12-07T07:36:42;2.00;99.90
13585;DHT22;6863;48.402;9.994;2022-12-07T07:39:09;1.90;99.90
13585;DHT22;6863;48.402;9.994;2022-12-07T07:41:35;1.90;99.90
13585;DHT22;6863;48.402;9.994;2022-12-07T07:44:00;2.00;99.90
13585;DHT22;6863;48.402;9.994;2022-12-07T07:46:26;2.20;99.90
13585;DHT22;6863;48.402;9.994;2022-12-07T07:48:52;2.40;99.90
13585;DHT22;6863;48.402;9.994;2022-12-07T07:51:17;2.80;99.90
13585;DHT22;6863;48.402;9.994;2022-12-07T07:53:43;3.40;99.90
13585;DHT22;6863;48.402;9.994;2022-12-07T07:56:08;4.10;99.90
13585;DHT22;6863;48.402;9.994;2022-12-07T07:58:34;5.40;99.90
13585;DHT22;6863;48.402;9.994;2022-12-07T08:01:06;7.20;98.40
13585;DHT22;6863;48.402;9.994;2022-12-07T08:03:32;8.70;93.40
13585;DHT22;6863;48.402;9.994;2022-12-07T08:05:58;9.70;90.90
13585;DHT22;6863;48.402;9.994;2022-12-07T08:08:23;10.40;85.40
13585;DHT22;6863;48.402;9.994;2022-12-07T08:10:49;10.40;84.30
13585;DHT22;6863;48.402;9.994;2022-12-07T08:13:16;10.30;84.80
13585;DHT22;6863;48.402;9.994;2022-12-07T08:15:43;10.80;82.80
13585;DHT22;6863;48.402;9.994;2022-12-07T08:18:10;10.80;80.50
13585;DHT22;6863;48.402;9.994;2022-12-07T08:20:37;10.80;81.70
13585;DHT22;6863;48.402;9.994;2022-12-07T08:23:03;9.60;84.30
13585;DHT22;6863;48.402;9.994;2022-12-07T08:25:30;9.00;89.00
13585;DHT22;6863;48.402;9.994;2022-12-07T08:27:56;9.80;89.00
13585;DHT22;6863;48.402;9.994;2022-12-07T08:30:22;11.30;84.50
13585;DHT22;6863;48.402;9.994;2022-12-07T08:32:48;12.70;77.30
13585;DHT22;6863;48.402;9.994;2022-12-07T08:35:15;11.70;73.80
13585;DHT22;6863;48.402;9.994;2022-12-07T08:37:41;9.70;77.50
13585;DHT22;6863;48.402;9.994;2022-12-07T08:40:07;8.20;81.00
13585;DHT22;6863;48.402;9.994;2022-12-07T08:42:34;7.60;82.30
13585;DHT22;6863;48.402;9.994;2022-12-07T08:45:06;7.20;84.90
13585;DHT22;6863;48.402;9.994;2022-12-07T08:47:33;7.50;85.80
13585;DHT22;6863;48.402;9.994;2022-12-07T08:50:04;7.50;84.70
13585;DHT22;6863;48.402;9.994;2022-12-07T08:52:31;7.40;84.80
13585;DHT22;6863;48.402;9.994;2022-12-07T08:54:58;7.40;84.20
13585;DHT22;6863;48.402;9.994;2022-12-07T08:57:24;7.40;83.20
13585;DHT22;6863;48.402;9.994;2022-12-07T08:59:50;7.20;81.20
13585;DHT22;6863;48.402;9.994;2022-12-07T09:02:15;6.60;82.90
13585;DHT22;6863;48.402;9.994;2022-12-07T09:04:41;6.30;83.10
13585;DHT22;6863;48.402;9.994;2022-12-07T09:07:06;6.30;83.80
13585;DHT22;6863;48.402;9.994;2022-12-07T09:09:32;6.20;83.80
13585;DHT22;6863;48.402;9.994;2022-12-07T09:11:58;6.10;84.00
13585;DHT22;6863;48.402;9.994;2022-12-07T09:14:24;6.20;83.70
13585;DHT22;6863;48.402;9.994;2022-12-07T09:16:49;6.40;83.50
13585;DHT22;6863;48.402;9.994;2022-12-07T09:19:15;6.50;83.10
13585;DHT22;6863;48.402;9.994;2022-12-07T09:21:41;6.60;81.60
13585;DHT22;6863;48.402;9.994;2022-12-07T09:24:06;6.40;82.10
13585;DHT22;6863;48.402;9.994;2022-12-07T09:26:32;6.30;82.70
13585;DHT22;6863;48.402;9.994;2022-12-07T09:28:57;6.20;82.30
13585;DHT22;6863;48.402;9.994;2022-12-07T09:31:23;6.30;82.60
13585;DHT22;6863;48.402;9.994;2022-12-07T09:33:54;6.40;82.30
13585;DHT22;6863;48.402;9.994;2022-12-07T09:36:20;6.40;81.70
13585;DHT22;6863;48.402;9.994;2022-12-07T09:38:45;6.40;82.00
13585;DHT22;6863;48.402;9.994;2022-12-07T09:41:11;6.50;81.60
13585;DHT22;6863;48.402;9.994;2022-12-07T09:43:38;6.70;81.20
13585;DHT22;6863;48.402;9.994;2022-12-07T09:46:05;6.30;81.00
13585;DHT22;6863;48.402;9.994;2022-12-07T09:48:33;6.20;81.70
13585;DHT22;6863;48.402;9.994;2022-12-07T09:51:01;6.30;81.80
13585;DHT22;6863;48.402;9.994;2022-12-07T09:53:33;6.40;81.70
13585;DHT22;6863;48.402;9.994;2022-12-07T09:55:59;6.50;81.60
13585;DHT22;6863;48.402;9.994;2022-12-07T09:58:28;6.70;81.20
13585;DHT22;6863;48.402;9.994;2022-12-07T10:00:58;7.20;80.60
13585;DHT22;6863;48.402;9.994;2022-12-07T10:03:25;7.90;78.10
13585;DHT22;6863;48.402;9.994;2022-12-07T10:05:52;8.50;75.20
13585;DHT22;6863;48.402;9.994;2022-12-07T10:08:19;9.10;73.10
13585;DHT22;6863;48.402;9.994;2022-12-07T10:10:49;9.30;72.20
13585;DHT22;6863;48.402;9.994;2022-12-07T10:13:21;9.50;71.50
13585;DHT22;6863;48.402;9.994;2022-12-07T10:15:55;9.90;68.10
13585;DHT22;6863;48.402;9.994;2022-12-07T10:18:40;9.50;67.20
13585;DHT22;6863;48.402;9.994;2022-12-07T10:21:21;9.80;66.70
13585;DHT22;6863;48.402;9.994;2022-12-07T10:24:12;10.80;63.90
13585;DHT22;6863;48.402;9.994;2022-12-07T10:26:58;10.80;61.50
13585;DHT22;6863;48.402;9.994;2022-12-07T10:31:55;11.10;58.90
13585;DHT22;6863;48.402;9.994;2022-12-07T10:36:50;10.70;59.30
13585;DHT22;6863;48.402;9.994;2022-12-07T10:39:25;10.20;60.20
13585;DHT22;6863;48.402;9.994;2022-12-07T10:41:59;9.60;61.40
13585;DHT22;6863;48.402;9.994;2022-12-07T10:44:33;9.60;63.20
13585;DHT22;6863;48.402;9.994;2022-12-07T10:47:24;10.00;61.70
13585;DHT22;6863;48.402;9.994;2022-12-07T10:50:14;10.10;61.30
13585;DHT22;6863;48.402;9.994;2022-12-07T11:04:30;9.90;59.40
13585;DHT22;6863;48.402;9.994;2022-12-07T11:07:22;9.70;60.20
13585;DHT22;6863;48.402;9.994;2022-12-07T11:13:13;9.40;61.30
13585;DHT22;6863;48.402;9.994;2022-12-07T11:16:01;9.00;61.90
13585;DHT22;6863;48.402;9.994;2022-12-07T11:21:19;8.70;63.10
13585;DHT22;6863;48.402;9.994;2022-12-07T11:24:03;8.80;63.80
13585;DHT22;6863;48.402;9.994;2022-12-07T11:29:51;9.30;62.00
13585;DHT22;6863;48.402;9.994;2022-12-07T11:35:30;9.40;61.80
13585;DHT22;6863;48.402;9.994;2022-12-07T11:38:03;9.70;61.60
13585;DHT22;6863;48.402;9.994;2022-12-07T11:40:35;9.60;60.70
13585;DHT22;6863;48.402;9.994;2022-12-07T11:43:31;9.60;60.40
13585;DHT22;6863;48.402;9.994;2022-12-07T11:46:08;9.70;60.20
13585;DHT22;6863;48.402;9.994;2022-12-07T11:48:45;9.30;60.40
13585;DHT22;6863;48.402;9.994;2022-12-07T11:51:12;9.00;61.70
13585;DHT22;6863;48.402;9.994;2022-12-07T11:53:54;8.90;61.50
13585;DHT22;6863;48.402;9.994;2022-12-07T11:56:23;8.60;61.40
13585;DHT22;6863;48.402;9.994;2022-12-07T12:01:58;8.50;62.80
13585;DHT22;6863;48.402;9.994;2022-12-07T12:04:45;8.30;63.00
13585;DHT22;6863;48.402;9.994;2022-12-07T12:07:17;8.40;63.40
13585;DHT22;6863;48.402;9.994;2022-12-07T12:18:26;8.50;63.30
13585;DHT22;6863;48.402;9.994;2022-12-07T12:21:04;8.60;62.20
13585;DHT22;6863;48.402;9.994;2022-12-07T12:26:00;8.50;62.50
13585;DHT22;6863;48.402;9.994;2022-12-07T12:29:20;8.50;62.50
13585;DHT22;6863;48.402;9.994;2022-12-07T12:33:59;8.00;63.30
13585;DHT22;6863;48.402;9.994;2022-12-07T12:36:43;8.10;63.50
13585;DHT22;6863;48.402;9.994;2022-12-07T12:39:17;8.20;63.50
13585;DHT22;6863;48.402;9.994;2022-12-07T12:51:57;7.50;65.50
13585;DHT22;6863;48.402;9.994;2022-12-07T12:54:30;7.40;66.90
13585;DHT22;6863;48.402;9.994;2022-12-07T12:59:39;7.70;66.90
13585;DHT22;6863;48.402;9.994;2022-12-07T13:07:47;8.30;66.70
13585;DHT22;6863;48.402;9.994;2022-12-07T13:15:40;8.60;65.20
13585;DHT22;6863;48.402;9.994;2022-12-07T13:18:25;8.70;65.20
13585;DHT22;6863;48.402;9.994;2022-12-07T13:28:52;8.30;63.50
13585;DHT22;6863;48.402;9.994;2022-12-07T13:34:27;7.80;64.60
13585;DHT22;6863;48.402;9.994;2022-12-07T13:36:54;7.70;65.50
13585;DHT22;6863;48.402;9.994;2022-12-07T13:39:22;8.00;65.80
13585;DHT22;6863;48.402;9.994;2022-12-07T13:41:58;8.10;65.20
13585;DHT22;6863;48.402;9.994;2022-12-07T13:44:26;8.00;63.70
13585;DHT22;6863;48.402;9.994;2022-12-07T13:47:15;7.90;63.70
13585;DHT22;6863;48.402;9.994;2022-12-07T13:49:50;8.00;64.40
13585;DHT22;6863;48.402;9.994;2022-12-07T13:52:25;8.20;63.80
13585;DHT22;6863;48.402;9.994;2022-12-07T13:55:17;8.30;63.10
13585;DHT22;6863;48.402;9.994;2022-12-07T13:57:44;8.10;62.70
13585;DHT22;6863;48.402;9.994;2022-12-07T14:00:16;7.90;63.40
13585;DHT22;6863;48.402;9.994;2022-12-07T14:05:29;7.80;64.50
13585;DHT22;6863;48.402;9.994;2022-12-07T14:07:58;7.70;64.60
13585;DHT22;6863;48.402;9.994;2022-12-07T14:12:58;7.80;65.10
13585;DHT22;6863;48.402;9.994;2022-12-07T14:15:28;7.80;65.00
13585;DHT22;6863;48.402;9.994;2022-12-07T14:17:56;7.70;65.30
13585;DHT22;6863;48.402;9.994;2022-12-07T14:20:48;7.60;65.70
13585;DHT22;6863;48.402;9.994;2022-12-07T14:23:25;7.60;65.60
13585;DHT22;6863;48.402;9.994;2022-12-07T14:25:53;7.60;66.40
13585;DHT22;6863;48.402;9.994;2022-12-07T14:28:33;7.50;66.30
13585;DHT22;6863;48.402;9.994;2022-12-07T14:31:00;7.50;66.80
13585;DHT22;6863;48.402;9.994;2022-12-07T14:33:26;7.50;66.60
13585;DHT22;6863;48.402;9.994;2022-12-07T14:35:53;7.40;66.90
13585;DHT22;6863;48.402;9.994;2022-12-07T14:38:21;7.30;67.70
13585;DHT22;6863;48.402;9.994;2022-12-07T14:40:48;7.30;68.20
13585;DHT22;6863;48.402;9.994;2022-12-07T14:43:16;7.10;68.90
13585;DHT22;6863;48.402;9.994;2022-12-07T14:45:42;7.00;69.10
13585;DHT22;6863;48.402;9.994;2022-12-07T14:48:11;6.80;69.40
13585;DHT22;6863;48.402;9.994;2022-12-07T14:50:39;6.70;69.60
13585;DHT22;6863;48.402;9.994;2022-12-07T14:53:14;6.60;70.30
13585;DHT22;6863;48.402;9.994;2022-12-07T14:55:40;6.40;70.70
13585;DHT22;6863;48.402;9.994;2022-12-07T14:58:09;6.30;70.70
13585;DHT22;6863;48.402;9.994;2022-12-07T15:00:37;6.20;71.70
13585;DHT22;6863;48.402;9.994;2022-12-07T15:03:03;6.10;71.90
13585;DHT22;6863;48.402;9.994;2022-12-07T15:05:28;6.00;72.40
13585;DHT22;6863;48.402;9.994;2022-12-07T15:07:54;5.80;73.10
13585;DHT22;6863;48.402;9.994;2022-12-07T15:10:23;5.70;74.10
13585;DHT22;6863;48.402;9.994;2022-12-07T15:12:50;5.50;74.80
13585;DHT22;6863;48.402;9.994;2022-12-07T15:15:16;5.40;75.20
13585;DHT22;6863;48.402;9.994;2022-12-07T15:17:42;5.30;75.80
13585;DHT22;6863;48.402;9.994;2022-12-07T15:20:12;5.20;77.00
13585;DHT22;6863;48.402;9.994;2022-12-07T15:22:38;5.00;77.90
13585;DHT22;6863;48.402;9.994;2022-12-07T15:25:04;5.00;78.70
13585;DHT22;6863;48.402;9.994;2022-12-07T15:27:31;4.90;79.20
13585;DHT22;6863;48.402;9.994;2022-12-07T15:29:56;4.70;80.20
13585;DHT22;6863;48.402;9.994;2022-12-07T15:32:22;4.70;81.40
13585;DHT22;6863;48.402;9.994;2022-12-07T15:34:48;4.60;82.10
13585;DHT22;6863;48.402;9.994;2022-12-07T15:37:15;4.50;82.90
13585;DHT22;6863;48.402;9.994;2022-12-07T15:39:41;4.50;84.00
13585;DHT22;6863;48.402;9.994;2022-12-07T15:42:07;4.40;85.00
13585;DHT22;6863;48.402;9.994;2022-12-07T15:44:33;4.30;85.50
13585;DHT22;6863;48.402;9.994;2022-12-07T15:47:17;4.30;86.30
13585;DHT22;6863;48.402;9.994;2022-12-07T15:49:43;4.20;87.00
13585;DHT22;6863;48.402;9.994;2022-12-07T15:52:09;4.10;87.90
13585;DHT22;6863;48.402;9.994;2022-12-07T15:54:34;4.10;88.20
13585;DHT22;6863;48.402;9.994;2022-12-07T15:57:00;4.00;89.00
13585;DHT22;6863;48.402;9.994;2022-12-07T15:59:27;4.00;89.90
13585;DHT22;6863;48.402;9.994;2022-12-07T16:01:54;3.90;90.20
13585;DHT22;6863;48.402;9.994;2022-12-07T16:04:19;3.80;90.50
13585;DHT22;6863;48.402;9.994;2022-12-07T16:06:45;3.80;91.00
13585;DHT22;6863;48.402;9.994;2022-12-07T16:09:11;3.80;91.40
13585;DHT22;6863;48.402;9.994;2022-12-07T16:11:37;3.80;91.80
13585;DHT22;6863;48.402;9.994;2022-12-07T16:14:02;3.80;92.50
13585;DHT22;6863;48.402;9.994;2022-12-07T16:16:28;3.80;92.90
13585;DHT22;6863;48.402;9.994;2022-12-07T16:18:54;3.80;93.30
13585;DHT22;6863;48.402;9.994;2022-12-07T16:21:20;3.80;93.80
13585;DHT22;6863;48.402;9.994;2022-12-07T16:23:46;3.80;94.10
13585;DHT22;6863;48.402;9.994;2022-12-07T16:26:14;3.70;94.50
13585;DHT22;6863;48.402;9.994;2022-12-07T16:28:40;3.70;95.00
13585;DHT22;6863;48.402;9.994;2022-12-07T16:31:12;3.70;95.30
13585;DHT22;6863;48.402;9.994;2022-12-07T16:33:39;3.70;96.00
13585;DHT22;6863;48.402;9.994;2022-12-07T16:36:06;3.70;95.90
13585;DHT22;6863;48.402;9.994;2022-12-07T16:38:33;3.70;96.20
13585;DHT22;6863;48.402;9.994;2022-12-07T16:40:59;3.70;96.50
13585;DHT22;6863;48.402;9.994;2022-12-07T16:43:24;3.60;96.50
13585;DHT22;6863;48.402;9.994;2022-12-07T16:45:50;3.60;96.70
13585;DHT22;6863;48.402;9.994;2022-12-07T16:48:16;3.60;96.80
13585;DHT22;6863;48.402;9.994;2022-12-07T16:50:43;3.60;97.00
13585;DHT22;6863;48.402;9.994;2022-12-07T16:53:12;3.60;97.20
13585;DHT22;6863;48.402;9.994;2022-12-07T16:55:43;3.60;97.50
13585;DHT22;6863;48.402;9.994;2022-12-07T16:58:10;3.60;97.60
13585;DHT22;6863;48.402;9.994;2022-12-07T17:00:36;3.60;97.80
13585;DHT22;6863;48.402;9.994;2022-12-07T17:03:05;3.60;97.70
13585;DHT22;6863;48.402;9.994;2022-12-07T17:05:31;3.50;97.80
13585;DHT22;6863;48.402;9.994;2022-12-07T17:07:57;3.50;98.00
13585;DHT22;6863;48.402;9.994;2022-12-07T17:10:24;3.50;98.20
13585;DHT22;6863;48.402;9.994;2022-12-07T17:12:50;3.50;98.20
13585;DHT22;6863;48.402;9.994;2022-12-07T17:15:16;3.50;98.30
13585;DHT22;6863;48.402;9.994;2022-12-07T17:17:45;3.50;98.20
13585;DHT22;6863;48.402;9.994;2022-12-07T17:20:11;3.50;98.30
13585;DHT22;6863;48.402;9.994;2022-12-07T17:22:38;3.40;98.50
13585;DHT22;6863;48.402;9.994;2022-12-07T17:25:04;3.40;98.80
13585;DHT22;6863;48.402;9.994;2022-12-07T17:27:30;3.30;99.00
13585;DHT22;6863;48.402;9.994;2022-12-07T17:29:56;3.30;99.20
13585;DHT22;6863;48.402;9.994;2022-12-07T17:32:22;3.30;99.30
13585;DHT22;6863;48.402;9.994;2022-12-07T17:34:47;3.30;99.60
13585;DHT22;6863;48.402;9.994;2022-12-07T17:37:13;3.30;99.60
13585;DHT22;6863;48.402;9.994;2022-12-07T17:39:39;3.30;99.70
13585;DHT22;6863;48.402;9.994;2022-12-07T17:42:04;3.30;99.70
13585;DHT22;6863;48.402;9.994;2022-12-07T17:44:48;3.30;99.80
13585;DHT22;6863;48.402;9.994;2022-12-07T17:47:14;3.30;99.90
13585;DHT22;6863;48.402;9.994;2022-12-07T17:49:42;3.30;99.90
13585;DHT22;6863;48.402;9.994;2022-12-07T17:52:08;3.30;99.90
13585;DHT22;6863;48.402;9.994;2022-12-07T17:54:52;3.30;99.90
13585;DHT22;6863;48.402;9.994;2022-12-07T17:57:18;3.30;99.90
13585;DHT22;6863;48.402;9.994;2022-12-07T17:59:43;3.20;99.90
13585;DHT22;6863;48.402;9.994;2022-12-07T18:02:10;3.20;99.90
13585;DHT22;6863;48.402;9.994;2022-12-07T18:04:36;3.30;99.90
13585;DHT22;6863;48.402;9.994;2022-12-07T18:07:02;3.30;99.90